Altamont, South Dakota
Current Conditions -  °F | °C
As of 8:53 PM on Thursday 18 Dec 2014 (Local Time) from KCNB Reporting Station
Overcast Overcast  
Wind Chill: 15°   Ceiling: 2500
Heat Index: 24°   Visibility: 7mi
Dew Point: 22°   Wind: 7mph
Humidity: 95%   Direction: 140°SE
Pressure: 30.19"   Gusts: NA
Location:  44.7895°N, 96.7201°W
Report Text: KCNB 190253Z AUTO 14006KT 7SM OVC025 M05/M05 A3019 RMK AO2 T10471054
Loading
Personal Weather Stations






























Interactive Weather Map New forecast layout! Learn more

10-Day Weather Forecast

Advertisements
Track Severe Weather on mobile